sensor_id;sensor_type;location;lat;lon;timestamp;P1;durP1;ratioP1;P2;durP2;ratioP2
51048;SDS011;37084;55.228;36.450;2023-09-19T00:00:56;27.98;;;13.45;;
51048;SDS011;37084;55.228;36.450;2023-09-19T00:03:58;25.00;;;13.13;;
51048;SDS011;37084;55.228;36.450;2023-09-19T00:07:00;26.33;;;12.82;;
51048;SDS011;37084;55.228;36.450;2023-09-19T00:10:03;27.95;;;12.75;;
51048;SDS011;37084;55.228;36.450;2023-09-19T00:13:05;28.27;;;13.30;;
51048;SDS011;37084;55.228;36.450;2023-09-19T00:16:08;26.58;;;13.18;;
51048;SDS011;37084;55.228;36.450;2023-09-19T00:19:11;26.80;;;12.85;;
51048;SDS011;37084;55.228;36.450;2023-09-19T00:22:14;26.75;;;13.18;;
51048;SDS011;37084;55.228;36.450;2023-09-19T00:25:16;28.95;;;13.00;;
51048;SDS011;37084;55.228;36.450;2023-09-19T00:28:17;30.83;;;13.95;;
51048;SDS011;37084;55.228;36.450;2023-09-19T00:31:20;32.05;;;15.05;;
51048;SDS011;37084;55.228;36.450;2023-09-19T00:34:26;31.95;;;13.82;;
51048;SDS011;37084;55.228;36.450;2023-09-19T00:37:27;31.05;;;14.25;;
51048;SDS011;37084;55.228;36.450;2023-09-19T00:40:28;29.52;;;14.18;;
51048;SDS011;37084;55.228;36.450;2023-09-19T00:43:30;30.40;;;13.60;;
51048;SDS011;37084;55.228;36.450;2023-09-19T00:46:34;34.88;;;14.68;;
51048;SDS011;37084;55.228;36.450;2023-09-19T00:49:36;29.90;;;14.75;;
51048;SDS011;37084;55.228;36.450;2023-09-19T00:52:38;38.17;;;15.98;;
51048;SDS011;37084;55.228;36.450;2023-09-19T00:55:40;35.25;;;15.93;;
51048;SDS011;37084;55.228;36.450;2023-09-19T00:58:43;36.42;;;16.23;;
51048;SDS011;37084;55.228;36.450;2023-09-19T01:01:44;32.45;;;15.77;;
51048;SDS011;37084;55.228;36.450;2023-09-19T01:04:46;44.00;;;17.65;;
51048;SDS011;37084;55.228;36.450;2023-09-19T01:07:47;32.75;;;15.10;;
51048;SDS011;37084;55.228;36.450;2023-09-19T01:10:55;31.63;;;14.85;;
51048;SDS011;37084;55.228;36.450;2023-09-19T01:14:12;34.60;;;14.73;;
51048;SDS011;37084;55.228;36.450;2023-09-19T01:17:30;30.58;;;14.73;;
51048;SDS011;37084;55.228;36.450;2023-09-19T01:24:08;30.73;;;14.13;;
51048;SDS011;37084;55.228;36.450;2023-09-19T01:27:53;32.83;;;15.18;;
51048;SDS011;37084;55.228;36.450;2023-09-19T01:34:10;31.95;;;15.77;;
51048;SDS011;37084;55.228;36.450;2023-09-19T01:37:11;35.30;;;16.02;;
51048;SDS011;37084;55.228;36.450;2023-09-19T01:40:13;36.33;;;16.33;;
51048;SDS011;37084;55.228;36.450;2023-09-19T01:46:30;31.50;;;15.82;;
51048;SDS011;37084;55.228;36.450;2023-09-19T01:49:41;35.00;;;15.30;;
51048;SDS011;37084;55.228;36.450;2023-09-19T01:52:48;31.50;;;16.65;;
51048;SDS011;37084;55.228;36.450;2023-09-19T01:55:52;32.13;;;15.38;;
51048;SDS011;37084;55.228;36.450;2023-09-19T01:58:56;31.08;;;15.05;;
51048;SDS011;37084;55.228;36.450;2023-09-19T02:02:00;31.67;;;14.90;;
51048;SDS011;37084;55.228;36.450;2023-09-19T02:05:02;31.77;;;14.88;;
51048;SDS011;37084;55.228;36.450;2023-09-19T02:08:05;36.22;;;15.82;;
51048;SDS011;37084;55.228;36.450;2023-09-19T02:11:06;34.03;;;15.10;;
51048;SDS011;37084;55.228;36.450;2023-09-19T02:14:07;32.72;;;14.95;;
51048;SDS011;37084;55.228;36.450;2023-09-19T02:17:09;32.60;;;15.80;;
51048;SDS011;37084;55.228;36.450;2023-09-19T02:20:13;32.65;;;15.85;;
51048;SDS011;37084;55.228;36.450;2023-09-19T02:23:18;31.27;;;14.75;;
51048;SDS011;37084;55.228;36.450;2023-09-19T02:26:19;32.70;;;15.70;;
51048;SDS011;37084;55.228;36.450;2023-09-19T02:29:22;30.20;;;14.57;;
51048;SDS011;37084;55.228;36.450;2023-09-19T02:32:23;34.15;;;15.85;;
51048;SDS011;37084;55.228;36.450;2023-09-19T02:35:24;36.03;;;15.77;;
51048;SDS011;37084;55.228;36.450;2023-09-19T02:38:26;34.83;;;15.38;;
51048;SDS011;37084;55.228;36.450;2023-09-19T02:41:28;30.23;;;14.82;;
51048;SDS011;37084;55.228;36.450;2023-09-19T02:44:30;30.45;;;15.40;;
51048;SDS011;37084;55.228;36.450;2023-09-19T02:47:31;35.55;;;15.95;;
51048;SDS011;37084;55.228;36.450;2023-09-19T02:50:33;34.13;;;14.77;;
51048;SDS011;37084;55.228;36.450;2023-09-19T02:53:35;31.23;;;15.55;;
51048;SDS011;37084;55.228;36.450;2023-09-19T02:56:38;33.67;;;15.13;;
51048;SDS011;37084;55.228;36.450;2023-09-19T02:59:39;31.75;;;15.52;;
51048;SDS011;37084;55.228;36.450;2023-09-19T03:02:43;34.85;;;15.27;;
51048;SDS011;37084;55.228;36.450;2023-09-19T03:05:45;36.13;;;15.45;;
51048;SDS011;37084;55.228;36.450;2023-09-19T03:08:50;31.13;;;14.70;;
51048;SDS011;37084;55.228;36.450;2023-09-19T03:11:54;34.67;;;14.23;;
51048;SDS011;37084;55.228;36.450;2023-09-19T03:14:55;37.20;;;15.05;;
51048;SDS011;37084;55.228;36.450;2023-09-19T03:17:57;31.58;;;15.25;;
51048;SDS011;37084;55.228;36.450;2023-09-19T03:21:00;31.27;;;14.55;;
51048;SDS011;37084;55.228;36.450;2023-09-19T03:24:03;30.98;;;14.98;;
51048;SDS011;37084;55.228;36.450;2023-09-19T03:27:05;31.05;;;14.35;;
51048;SDS011;37084;55.228;36.450;2023-09-19T03:30:07;32.05;;;14.80;;
51048;SDS011;37084;55.228;36.450;2023-09-19T03:33:14;28.00;;;14.90;;
51048;SDS011;37084;55.228;36.450;2023-09-19T03:36:18;33.22;;;14.32;;
51048;SDS011;37084;55.228;36.450;2023-09-19T03:39:19;34.40;;;15.38;;
51048;SDS011;37084;55.228;36.450;2023-09-19T03:42:20;30.30;;;14.38;;
51048;SDS011;37084;55.228;36.450;2023-09-19T03:45:27;33.60;;;15.25;;
51048;SDS011;37084;55.228;36.450;2023-09-19T03:48:29;30.55;;;14.60;;
51048;SDS011;37084;55.228;36.450;2023-09-19T03:51:31;30.20;;;14.55;;
51048;SDS011;37084;55.228;36.450;2023-09-19T03:54:35;34.10;;;15.20;;
51048;SDS011;37084;55.228;36.450;2023-09-19T03:57:36;29.63;;;13.98;;
51048;SDS011;37084;55.228;36.450;2023-09-19T04:00:38;28.63;;;14.07;;
51048;SDS011;37084;55.228;36.450;2023-09-19T04:03:39;33.55;;;14.80;;
51048;SDS011;37084;55.228;36.450;2023-09-19T04:06:47;29.45;;;14.07;;
51048;SDS011;37084;55.228;36.450;2023-09-19T04:09:49;31.13;;;15.30;;
51048;SDS011;37084;55.228;36.450;2023-09-19T04:12:50;35.33;;;15.10;;
51048;SDS011;37084;55.228;36.450;2023-09-19T04:15:54;33.45;;;15.63;;
51048;SDS011;37084;55.228;36.450;2023-09-19T04:19:14;27.77;;;14.35;;
51048;SDS011;37084;55.228;36.450;2023-09-19T04:26:49;30.73;;;14.48;;
51048;SDS011;37084;55.228;36.450;2023-09-19T04:29:51;31.10;;;14.23;;
51048;SDS011;37084;55.228;36.450;2023-09-19T04:32:53;32.05;;;13.65;;
51048;SDS011;37084;55.228;36.450;2023-09-19T04:35:55;33.15;;;14.95;;
51048;SDS011;37084;55.228;36.450;2023-09-19T04:38:56;28.73;;;14.07;;
51048;SDS011;37084;55.228;36.450;2023-09-19T04:41:58;28.42;;;13.85;;
51048;SDS011;37084;55.228;36.450;2023-09-19T04:45:00;30.70;;;14.20;;
51048;SDS011;37084;55.228;36.450;2023-09-19T04:48:01;31.17;;;13.73;;
51048;SDS011;37084;55.228;36.450;2023-09-19T04:51:03;30.90;;;14.13;;
51048;SDS011;37084;55.228;36.450;2023-09-19T04:54:04;32.08;;;16.02;;
51048;SDS011;37084;55.228;36.450;2023-09-19T04:57:05;29.30;;;15.02;;
51048;SDS011;37084;55.228;36.450;2023-09-19T05:00:08;30.73;;;13.93;;
51048;SDS011;37084;55.228;36.450;2023-09-19T05:03:14;26.83;;;14.50;;
51048;SDS011;37084;55.228;36.450;2023-09-19T05:06:15;29.25;;;13.65;;
51048;SDS011;37084;55.228;36.450;2023-09-19T05:09:16;26.73;;;14.50;;
51048;SDS011;37084;55.228;36.450;2023-09-19T05:12:20;26.38;;;13.55;;
51048;SDS011;37084;55.228;36.450;2023-09-19T05:15:21;28.35;;;13.80;;
51048;SDS011;37084;55.228;36.450;2023-09-19T05:18:22;27.70;;;14.10;;
51048;SDS011;37084;55.228;36.450;2023-09-19T05:21:23;26.55;;;13.60;;
51048;SDS011;37084;55.228;36.450;2023-09-19T05:24:25;28.90;;;14.27;;
51048;SDS011;37084;55.228;36.450;2023-09-19T05:27:27;27.38;;;14.10;;
51048;SDS011;37084;55.228;36.450;2023-09-19T05:30:28;30.52;;;14.35;;
51048;SDS011;37084;55.228;36.450;2023-09-19T05:33:30;28.75;;;13.95;;
51048;SDS011;37084;55.228;36.450;2023-09-19T05:36:32;24.30;;;13.55;;
51048;SDS011;37084;55.228;36.450;2023-09-19T05:39:34;26.42;;;13.80;;
51048;SDS011;37084;55.228;36.450;2023-09-19T05:42:35;27.90;;;13.90;;
51048;SDS011;37084;55.228;36.450;2023-09-19T05:45:38;27.50;;;14.43;;
51048;SDS011;37084;55.228;36.450;2023-09-19T05:48:41;25.88;;;13.80;;
51048;SDS011;37084;55.228;36.450;2023-09-19T05:51:44;25.67;;;13.20;;
51048;SDS011;37084;55.228;36.450;2023-09-19T05:54:46;25.00;;;13.32;;
51048;SDS011;37084;55.228;36.450;2023-09-19T05:57:51;24.67;;;14.38;;
51048;SDS011;37084;55.228;36.450;2023-09-19T06:00:54;26.75;;;13.15;;
51048;SDS011;37084;55.228;36.450;2023-09-19T06:03:56;24.52;;;12.60;;
51048;SDS011;37084;55.228;36.450;2023-09-19T06:06:57;23.27;;;12.90;;
51048;SDS011;37084;55.228;36.450;2023-09-19T06:09:58;24.92;;;12.15;;
51048;SDS011;37084;55.228;36.450;2023-09-19T06:13:00;24.15;;;12.02;;
51048;SDS011;37084;55.228;36.450;2023-09-19T06:16:05;21.15;;;11.90;;
51048;SDS011;37084;55.228;36.450;2023-09-19T06:19:06;24.15;;;12.50;;
51048;SDS011;37084;55.228;36.450;2023-09-19T06:22:09;21.13;;;11.23;;
51048;SDS011;37084;55.228;36.450;2023-09-19T06:25:12;21.02;;;12.32;;
51048;SDS011;37084;55.228;36.450;2023-09-19T06:28:21;24.48;;;12.70;;
51048;SDS011;37084;55.228;36.450;2023-09-19T06:31:26;20.13;;;12.45;;
51048;SDS011;37084;55.228;36.450;2023-09-19T06:34:27;23.05;;;12.07;;
51048;SDS011;37084;55.228;36.450;2023-09-19T06:37:28;19.75;;;11.65;;
51048;SDS011;37084;55.228;36.450;2023-09-19T06:40:30;20.55;;;11.50;;
51048;SDS011;37084;55.228;36.450;2023-09-19T06:43:31;19.30;;;12.07;;
51048;SDS011;37084;55.228;36.450;2023-09-19T06:46:35;20.55;;;11.80;;
51048;SDS011;37084;55.228;36.450;2023-09-19T06:49:40;18.52;;;11.18;;
51048;SDS011;37084;55.228;36.450;2023-09-19T06:52:41;20.33;;;11.35;;
51048;SDS011;37084;55.228;36.450;2023-09-19T06:55:42;17.35;;;10.32;;
51048;SDS011;37084;55.228;36.450;2023-09-19T06:58:45;17.27;;;11.57;;
51048;SDS011;37084;55.228;36.450;2023-09-19T07:01:48;21.58;;;10.75;;
51048;SDS011;37084;55.228;36.450;2023-09-19T07:04:51;20.30;;;11.30;;
51048;SDS011;37084;55.228;36.450;2023-09-19T07:07:52;18.30;;;11.20;;
51048;SDS011;37084;55.228;36.450;2023-09-19T07:10:55;19.63;;;10.43;;
51048;SDS011;37084;55.228;36.450;2023-09-19T07:13:58;20.90;;;10.82;;
51048;SDS011;37084;55.228;36.450;2023-09-19T07:17:00;18.52;;;11.68;;
51048;SDS011;37084;55.228;36.450;2023-09-19T07:20:02;17.67;;;10.40;;
51048;SDS011;37084;55.228;36.450;2023-09-19T07:23:08;16.13;;;10.93;;
51048;SDS011;37084;55.228;36.450;2023-09-19T07:26:09;15.10;;;10.20;;
51048;SDS011;37084;55.228;36.450;2023-09-19T07:29:10;17.83;;;11.00;;
51048;SDS011;37084;55.228;36.450;2023-09-19T07:32:11;13.75;;;8.52;;
51048;SDS011;37084;55.228;36.450;2023-09-19T07:35:14;16.75;;;9.05;;
51048;SDS011;37084;55.228;36.450;2023-09-19T07:38:16;17.55;;;8.80;;
51048;SDS011;37084;55.228;36.450;2023-09-19T07:41:18;12.55;;;8.23;;
51048;SDS011;37084;55.228;36.450;2023-09-19T07:44:19;12.85;;;8.77;;
51048;SDS011;37084;55.228;36.450;2023-09-19T07:47:21;12.52;;;8.43;;
51048;SDS011;37084;55.228;36.450;2023-09-19T07:50:22;11.63;;;7.72;;
51048;SDS011;37084;55.228;36.450;2023-09-19T07:53:24;12.75;;;7.90;;
51048;SDS011;37084;55.228;36.450;2023-09-19T07:56:25;12.90;;;8.45;;
51048;SDS011;37084;55.228;36.450;2023-09-19T07:59:28;10.98;;;7.95;;
51048;SDS011;37084;55.228;36.450;2023-09-19T08:02:33;12.00;;;7.55;;
51048;SDS011;37084;55.228;36.450;2023-09-19T08:05:35;12.82;;;7.47;;
51048;SDS011;37084;55.228;36.450;2023-09-19T08:08:37;10.45;;;7.13;;
51048;SDS011;37084;55.228;36.450;2023-09-19T08:11:38;12.52;;;7.32;;
51048;SDS011;37084;55.228;36.450;2023-09-19T08:14:40;9.93;;;6.78;;
51048;SDS011;37084;55.228;36.450;2023-09-19T08:17:44;10.45;;;7.53;;
51048;SDS011;37084;55.228;36.450;2023-09-19T08:20:51;10.32;;;7.35;;
51048;SDS011;37084;55.228;36.450;2023-09-19T08:23:53;10.57;;;7.25;;
51048;SDS011;37084;55.228;36.450;2023-09-19T08:26:55;10.10;;;7.45;;
51048;SDS011;37084;55.228;36.450;2023-09-19T08:29:56;12.15;;;7.43;;
51048;SDS011;37084;55.228;36.450;2023-09-19T08:32:58;9.32;;;6.57;;
51048;SDS011;37084;55.228;36.450;2023-09-19T08:36:05;12.80;;;7.25;;
51048;SDS011;37084;55.228;36.450;2023-09-19T08:39:07;10.93;;;7.43;;
51048;SDS011;37084;55.228;36.450;2023-09-19T08:42:09;9.70;;;7.10;;
51048;SDS011;37084;55.228;36.450;2023-09-19T08:45:11;9.35;;;6.55;;
51048;SDS011;37084;55.228;36.450;2023-09-19T08:51:26;8.80;;;6.43;;
51048;SDS011;37084;55.228;36.450;2023-09-19T08:54:29;11.63;;;6.32;;
51048;SDS011;37084;55.228;36.450;2023-09-19T08:57:34;7.80;;;5.75;;
51048;SDS011;37084;55.228;36.450;2023-09-19T09:00:38;8.85;;;5.95;;
51048;SDS011;37084;55.228;36.450;2023-09-19T09:03:44;7.88;;;5.88;;
51048;SDS011;37084;55.228;36.450;2023-09-19T09:06:47;9.13;;;6.55;;
51048;SDS011;37084;55.228;36.450;2023-09-19T09:09:51;8.90;;;6.53;;
51048;SDS011;37084;55.228;36.450;2023-09-19T09:15:57;8.60;;;6.13;;
51048;SDS011;37084;55.228;36.450;2023-09-19T09:19:01;7.13;;;5.55;;
51048;SDS011;37084;55.228;36.450;2023-09-19T09:22:06;8.10;;;6.15;;
51048;SDS011;37084;55.228;36.450;2023-09-19T09:25:09;9.52;;;5.82;;
51048;SDS011;37084;55.228;36.450;2023-09-19T09:28:11;7.97;;;4.78;;
51048;SDS011;37084;55.228;36.450;2023-09-19T09:31:24;4.95;;;4.30;;
51048;SDS011;37084;55.228;36.450;2023-09-19T09:34:32;5.90;;;4.38;;
51048;SDS011;37084;55.228;36.450;2023-09-19T09:37:35;10.57;;;4.80;;
51048;SDS011;37084;55.228;36.450;2023-09-19T09:40:46;6.18;;;4.22;;
51048;SDS011;37084;55.228;36.450;2023-09-19T09:43:59;5.80;;;3.88;;
51048;SDS011;37084;55.228;36.450;2023-09-19T09:47:22;5.93;;;4.18;;
51048;SDS011;37084;55.228;36.450;2023-09-19T09:51:11;7.07;;;4.38;;
51048;SDS011;37084;55.228;36.450;2023-09-19T09:54:18;4.35;;;3.83;;
51048;SDS011;37084;55.228;36.450;2023-09-19T09:57:22;5.00;;;3.85;;
51048;SDS011;37084;55.228;36.450;2023-09-19T10:00:26;7.28;;;3.88;;
51048;SDS011;37084;55.228;36.450;2023-09-19T10:03:39;5.80;;;4.40;;
51048;SDS011;37084;55.228;36.450;2023-09-19T10:06:48;5.10;;;3.75;;
51048;SDS011;37084;55.228;36.450;2023-09-19T10:09:52;4.53;;;3.88;;
51048;SDS011;37084;55.228;36.450;2023-09-19T10:12:59;6.35;;;3.55;;
51048;SDS011;37084;55.228;36.450;2023-09-19T10:16:05;5.95;;;4.28;;
51048;SDS011;37084;55.228;36.450;2023-09-19T10:19:11;9.40;;;4.43;;
51048;SDS011;37084;55.228;36.450;2023-09-19T10:22:29;7.43;;;4.40;;
51048;SDS011;37084;55.228;36.450;2023-09-19T10:25:36;6.38;;;4.03;;
51048;SDS011;37084;55.228;36.450;2023-09-19T10:28:38;5.78;;;4.57;;
51048;SDS011;37084;55.228;36.450;2023-09-19T10:31:42;5.85;;;4.18;;
51048;SDS011;37084;55.228;36.450;2023-09-19T10:34:49;6.32;;;4.22;;
51048;SDS011;37084;55.228;36.450;2023-09-19T10:37:51;7.80;;;4.15;;
51048;SDS011;37084;55.228;36.450;2023-09-19T10:40:56;7.95;;;4.60;;
51048;SDS011;37084;55.228;36.450;2023-09-19T10:44:04;7.38;;;4.15;;
51048;SDS011;37084;55.228;36.450;2023-09-19T10:47:11;6.05;;;3.72;;
51048;SDS011;37084;55.228;36.450;2023-09-19T10:50:24;5.75;;;4.00;;
51048;SDS011;37084;55.228;36.450;2023-09-19T10:53:27;8.27;;;4.20;;
51048;SDS011;37084;55.228;36.450;2023-09-19T10:56:30;7.70;;;4.22;;
51048;SDS011;37084;55.228;36.450;2023-09-19T10:59:38;5.70;;;4.30;;
51048;SDS011;37084;55.228;36.450;2023-09-19T11:07:23;6.38;;;4.47;;
51048;SDS011;37084;55.228;36.450;2023-09-19T11:10:52;6.68;;;4.03;;
51048;SDS011;37084;55.228;36.450;2023-09-19T11:14:13;9.43;;;4.43;;
51048;SDS011;37084;55.228;36.450;2023-09-19T11:20:46;5.95;;;4.15;;
51048;SDS011;37084;55.228;36.450;2023-09-19T11:27:28;5.65;;;4.45;;
51048;SDS011;37084;55.228;36.450;2023-09-19T11:30:30;8.25;;;4.30;;
51048;SDS011;37084;55.228;36.450;2023-09-19T11:40:33;7.15;;;4.78;;
51048;SDS011;37084;55.228;36.450;2023-09-19T11:43:36;8.40;;;4.65;;
51048;SDS011;37084;55.228;36.450;2023-09-19T11:46:59;6.85;;;4.82;;
51048;SDS011;37084;55.228;36.450;2023-09-19T11:50:00;6.05;;;4.50;;
51048;SDS011;37084;55.228;36.450;2023-09-19T11:53:05;7.68;;;5.13;;
51048;SDS011;37084;55.228;36.450;2023-09-19T11:56:06;8.90;;;5.05;;
51048;SDS011;37084;55.228;36.450;2023-09-19T11:59:13;9.60;;;4.50;;
51048;SDS011;37084;55.228;36.450;2023-09-19T12:02:39;5.65;;;4.97;;
51048;SDS011;37084;55.228;36.450;2023-09-19T12:05:45;5.63;;;4.68;;
51048;SDS011;37084;55.228;36.450;2023-09-19T12:08:49;7.20;;;4.63;;
51048;SDS011;37084;55.228;36.450;2023-09-19T12:11:55;10.55;;;5.25;;
51048;SDS011;37084;55.228;36.450;2023-09-19T12:14:58;6.55;;;4.18;;
51048;SDS011;37084;55.228;36.450;2023-09-19T12:17:59;6.50;;;4.95;;
51048;SDS011;37084;55.228;36.450;2023-09-19T12:21:01;8.23;;;5.30;;
51048;SDS011;37084;55.228;36.450;2023-09-19T12:24:03;8.73;;;5.32;;
51048;SDS011;37084;55.228;36.450;2023-09-19T12:27:06;7.10;;;4.88;;
51048;SDS011;37084;55.228;36.450;2023-09-19T12:30:08;7.32;;;4.70;;
51048;SDS011;37084;55.228;36.450;2023-09-19T12:33:18;8.18;;;4.90;;
51048;SDS011;37084;55.228;36.450;2023-09-19T12:36:27;6.72;;;5.10;;
51048;SDS011;37084;55.228;36.450;2023-09-19T12:39:35;8.43;;;5.13;;
51048;SDS011;37084;55.228;36.450;2023-09-19T12:45:42;7.25;;;5.00;;
51048;SDS011;37084;55.228;36.450;2023-09-19T12:48:43;7.38;;;5.13;;
51048;SDS011;37084;55.228;36.450;2023-09-19T12:51:49;8.35;;;5.45;;
51048;SDS011;37084;55.228;36.450;2023-09-19T12:54:58;7.78;;;5.53;;
51048;SDS011;37084;55.228;36.450;2023-09-19T12:58:13;7.07;;;4.95;;
51048;SDS011;37084;55.228;36.450;2023-09-19T13:01:22;7.40;;;4.75;;
51048;SDS011;37084;55.228;36.450;2023-09-19T13:04:29;9.65;;;4.97;;
51048;SDS011;37084;55.228;36.450;2023-09-19T13:07:40;14.88;;;5.43;;
51048;SDS011;37084;55.228;36.450;2023-09-19T13:14:27;7.32;;;5.32;;
51048;SDS011;37084;55.228;36.450;2023-09-19T13:17:42;7.72;;;5.22;;
51048;SDS011;37084;55.228;36.450;2023-09-19T13:21:09;9.32;;;5.03;;
51048;SDS011;37084;55.228;36.450;2023-09-19T13:24:24;10.13;;;5.00;;
51048;SDS011;37084;55.228;36.450;2023-09-19T13:27:31;8.25;;;5.05;;
51048;SDS011;37084;55.228;36.450;2023-09-19T13:30:33;6.05;;;4.88;;
51048;SDS011;37084;55.228;36.450;2023-09-19T13:33:46;10.07;;;5.22;;
51048;SDS011;37084;55.228;36.450;2023-09-19T13:36:53;7.45;;;5.07;;
51048;SDS011;37084;55.228;36.450;2023-09-19T13:39:55;10.73;;;5.55;;
51048;SDS011;37084;55.228;36.450;2023-09-19T13:42:58;8.05;;;5.00;;
51048;SDS011;37084;55.228;36.450;2023-09-19T13:46:00;6.78;;;4.88;;
51048;SDS011;37084;55.228;36.450;2023-09-19T13:49:03;7.50;;;5.32;;
51048;SDS011;37084;55.228;36.450;2023-09-19T13:52:05;7.55;;;4.75;;
51048;SDS011;37084;55.228;36.450;2023-09-19T13:58:17;9.85;;;5.32;;
51048;SDS011;37084;55.228;36.450;2023-09-19T14:01:21;5.90;;;4.15;;
51048;SDS011;37084;55.228;36.450;2023-09-19T14:04:26;7.82;;;4.82;;
51048;SDS011;37084;55.228;36.450;2023-09-19T14:07:31;6.95;;;4.55;;
51048;SDS011;37084;55.228;36.450;2023-09-19T14:10:35;6.22;;;4.47;;
51048;SDS011;37084;55.228;36.450;2023-09-19T14:13:38;6.72;;;4.25;;
51048;SDS011;37084;55.228;36.450;2023-09-19T14:16:40;5.55;;;4.15;;
51048;SDS011;37084;55.228;36.450;2023-09-19T14:19:43;8.40;;;5.00;;
51048;SDS011;37084;55.228;36.450;2023-09-19T14:22:45;5.68;;;4.72;;
51048;SDS011;37084;55.228;36.450;2023-09-19T14:25:46;8.02;;;4.63;;
51048;SDS011;37084;55.228;36.450;2023-09-19T14:28:47;8.43;;;4.72;;
51048;SDS011;37084;55.228;36.450;2023-09-19T14:31:53;8.23;;;4.78;;
51048;SDS011;37084;55.228;36.450;2023-09-19T14:34:55;5.72;;;4.43;;
51048;SDS011;37084;55.228;36.450;2023-09-19T14:37:57;6.72;;;4.72;;
51048;SDS011;37084;55.228;36.450;2023-09-19T14:40:59;7.38;;;4.72;;
51048;SDS011;37084;55.228;36.450;2023-09-19T14:44:02;8.98;;;4.90;;
51048;SDS011;37084;55.228;36.450;2023-09-19T14:47:04;9.82;;;5.20;;
51048;SDS011;37084;55.228;36.450;2023-09-19T14:50:08;7.07;;;4.65;;
51048;SDS011;37084;55.228;36.450;2023-09-19T14:53:15;8.23;;;4.97;;
51048;SDS011;37084;55.228;36.450;2023-09-19T14:56:17;7.00;;;4.75;;
51048;SDS011;37084;55.228;36.450;2023-09-19T14:59:22;6.60;;;4.97;;
51048;SDS011;37084;55.228;36.450;2023-09-19T15:02:24;9.82;;;5.30;;
51048;SDS011;37084;55.228;36.450;2023-09-19T15:05:27;7.68;;;5.20;;
51048;SDS011;37084;55.228;36.450;2023-09-19T15:08:31;7.50;;;4.95;;
51048;SDS011;37084;55.228;36.450;2023-09-19T15:11:37;7.70;;;5.30;;
51048;SDS011;37084;55.228;36.450;2023-09-19T15:14:41;7.13;;;5.03;;
51048;SDS011;37084;55.228;36.450;2023-09-19T15:17:43;7.97;;;4.95;;
51048;SDS011;37084;55.228;36.450;2023-09-19T15:20:44;8.88;;;5.43;;
51048;SDS011;37084;55.228;36.450;2023-09-19T15:23:49;7.63;;;5.07;;
51048;SDS011;37084;55.228;36.450;2023-09-19T15:26:50;7.60;;;5.65;;
51048;SDS011;37084;55.228;36.450;2023-09-19T15:29:52;7.28;;;5.47;;
51048;SDS011;37084;55.228;36.450;2023-09-19T15:32:56;6.97;;;5.10;;
51048;SDS011;37084;55.228;36.450;2023-09-19T15:36:07;8.65;;;5.55;;
51048;SDS011;37084;55.228;36.450;2023-09-19T15:39:11;8.50;;;5.78;;
51048;SDS011;37084;55.228;36.450;2023-09-19T15:42:13;10.52;;;6.75;;
51048;SDS011;37084;55.228;36.450;2023-09-19T15:45:18;11.40;;;6.15;;
51048;SDS011;37084;55.228;36.450;2023-09-19T15:48:19;12.10;;;7.70;;
51048;SDS011;37084;55.228;36.450;2023-09-19T15:51:22;31.42;;;14.55;;
51048;SDS011;37084;55.228;36.450;2023-09-19T15:54:27;29.80;;;15.75;;
51048;SDS011;37084;55.228;36.450;2023-09-19T15:57:30;18.80;;;10.80;;
51048;SDS011;37084;55.228;36.450;2023-09-19T16:00:39;13.25;;;7.82;;
51048;SDS011;37084;55.228;36.450;2023-09-19T16:06:56;9.20;;;6.65;;
51048;SDS011;37084;55.228;36.450;2023-09-19T16:10:00;9.35;;;6.97;;
51048;SDS011;37084;55.228;36.450;2023-09-19T16:13:06;11.23;;;8.10;;
51048;SDS011;37084;55.228;36.450;2023-09-19T16:16:09;13.52;;;7.10;;
51048;SDS011;37084;55.228;36.450;2023-09-19T16:19:13;13.27;;;8.45;;
51048;SDS011;37084;55.228;36.450;2023-09-19T16:22:14;12.98;;;8.45;;
51048;SDS011;37084;55.228;36.450;2023-09-19T16:25:16;14.68;;;7.30;;
51048;SDS011;37084;55.228;36.450;2023-09-19T16:31:31;11.32;;;7.18;;
51048;SDS011;37084;55.228;36.450;2023-09-19T16:34:40;11.70;;;7.75;;
51048;SDS011;37084;55.228;36.450;2023-09-19T16:37:43;14.35;;;7.43;;
51048;SDS011;37084;55.228;36.450;2023-09-19T16:40:51;13.57;;;7.43;;
51048;SDS011;37084;55.228;36.450;2023-09-19T16:43:57;11.57;;;7.70;;
51048;SDS011;37084;55.228;36.450;2023-09-19T16:47:00;12.57;;;8.10;;
51048;SDS011;37084;55.228;36.450;2023-09-19T16:50:04;12.32;;;8.07;;
51048;SDS011;37084;55.228;36.450;2023-09-19T16:53:15;12.75;;;7.95;;
51048;SDS011;37084;55.228;36.450;2023-09-19T16:56:22;12.60;;;8.35;;
51048;SDS011;37084;55.228;36.450;2023-09-19T16:59:23;11.88;;;7.80;;
51048;SDS011;37084;55.228;36.450;2023-09-19T17:02:24;14.80;;;7.90;;
51048;SDS011;37084;55.228;36.450;2023-09-19T17:05:29;12.80;;;7.45;;
51048;SDS011;37084;55.228;36.450;2023-09-19T17:08:31;11.95;;;8.10;;
51048;SDS011;37084;55.228;36.450;2023-09-19T17:11:33;10.88;;;7.10;;
51048;SDS011;37084;55.228;36.450;2023-09-19T17:14:36;14.30;;;7.63;;
51048;SDS011;37084;55.228;36.450;2023-09-19T17:17:38;11.23;;;7.65;;
51048;SDS011;37084;55.228;36.450;2023-09-19T17:20:41;10.00;;;7.55;;
51048;SDS011;37084;55.228;36.450;2023-09-19T17:23:42;11.52;;;7.10;;
51048;SDS011;37084;55.228;36.450;2023-09-19T17:26:43;13.43;;;7.82;;
51048;SDS011;37084;55.228;36.450;2023-09-19T17:29:45;15.35;;;7.93;;
51048;SDS011;37084;55.228;36.450;2023-09-19T17:32:46;13.43;;;7.93;;
51048;SDS011;37084;55.228;36.450;2023-09-19T17:35:48;14.20;;;7.72;;
51048;SDS011;37084;55.228;36.450;2023-09-19T17:38:53;14.25;;;8.20;;
51048;SDS011;37084;55.228;36.450;2023-09-19T17:41:59;15.50;;;8.40;;
51048;SDS011;37084;55.228;36.450;2023-09-19T17:45:04;15.82;;;8.70;;
51048;SDS011;37084;55.228;36.450;2023-09-19T17:48:07;13.15;;;8.65;;
51048;SDS011;37084;55.228;36.450;2023-09-19T17:51:08;13.65;;;8.27;;
51048;SDS011;37084;55.228;36.450;2023-09-19T17:54:12;12.60;;;8.60;;
51048;SDS011;37084;55.228;36.450;2023-09-19T17:57:15;12.88;;;8.23;;
51048;SDS011;37084;55.228;36.450;2023-09-19T18:00:16;19.20;;;9.23;;
51048;SDS011;37084;55.228;36.450;2023-09-19T18:03:18;14.07;;;8.48;;
51048;SDS011;37084;55.228;36.450;2023-09-19T18:06:20;13.68;;;8.35;;
51048;SDS011;37084;55.228;36.450;2023-09-19T18:09:21;14.23;;;8.57;;
51048;SDS011;37084;55.228;36.450;2023-09-19T18:12:23;15.27;;;8.93;;
51048;SDS011;37084;55.228;36.450;2023-09-19T18:15:29;12.23;;;8.15;;
51048;SDS011;37084;55.228;36.450;2023-09-19T18:18:34;13.50;;;8.25;;
51048;SDS011;37084;55.228;36.450;2023-09-19T18:21:36;13.68;;;7.95;;
51048;SDS011;37084;55.228;36.450;2023-09-19T18:24:41;16.45;;;8.55;;
51048;SDS011;37084;55.228;36.450;2023-09-19T18:27:44;14.70;;;8.30;;
51048;SDS011;37084;55.228;36.450;2023-09-19T18:30:49;15.15;;;8.73;;
51048;SDS011;37084;55.228;36.450;2023-09-19T18:33:50;15.45;;;8.52;;
51048;SDS011;37084;55.228;36.450;2023-09-19T18:36:54;12.43;;;7.97;;
51048;SDS011;37084;55.228;36.450;2023-09-19T18:39:55;14.57;;;8.45;;
51048;SDS011;37084;55.228;36.450;2023-09-19T18:42:59;11.98;;;8.02;;
51048;SDS011;37084;55.228;36.450;2023-09-19T18:46:00;14.20;;;8.93;;
51048;SDS011;37084;55.228;36.450;2023-09-19T18:49:12;14.73;;;8.60;;
51048;SDS011;37084;55.228;36.450;2023-09-19T18:52:15;13.95;;;8.70;;